Time;durP1;ratioP1;P1;durP2;ratioP2;P2;SDS_P1;SDS_P2;PMS_P1;PMS_P2;Temp;Humidity;BMP_temperature;BMP_pressure;BME280_temperature;BME280_humidity;BME280_pressure;Samples;Min_cycle;Max_cycle;Signal;HPM_P1;HPM_P2
2023/01/29 00:01:10;;;;;;;6.93;4.68;;;5.40;68.70;;;;;;5065193;28;20128;-66
2023/01/29 00:03:35;;;;;;;8.52;4.53;;;5.40;68.50;;;;;;5087996;28;20032;-66
2023/01/29 00:06:06;;;;;;;8.85;5.68;;;5.30;68.70;;;;;;5098522;28;20132;-66
2023/01/29 00:08:33;;;;;;;8.90;4.68;;;5.30;68.90;;;;;;5099319;28;20027;-66
2023/01/29 00:11:07;;;;;;;11.98;6.00;;;5.30;69.00;;;;;;5073247;28;20425;-67
2023/01/29 00:13:36;;;;;;;8.82;5.75;;;5.40;68.90;;;;;;5093835;28;20548;-67
2023/01/29 00:16:02;;;;;;;9.48;5.38;;;5.30;68.80;;;;;;5094597;28;20523;-67
2023/01/29 00:18:28;;;;;;;7.95;5.70;;;5.30;68.90;;;;;;5101150;28;20031;-64
2023/01/29 00:20:54;;;;;;;10.52;6.47;;;5.30;68.90;;;;;;5090195;28;20028;-67
2023/01/29 00:23:21;;;;;;;5.03;3.97;;;5.30;69.00;;;;;;5107684;28;20572;-67
2023/01/29 00:25:47;;;;;;;8.88;6.15;;;5.30;68.90;;;;;;5102097;28;20027;-67
2023/01/29 00:28:14;;;;;;;9.25;5.28;;;5.30;68.80;;;;;;5072421;28;20431;-68
2023/01/29 00:30:40;;;;;;;5.72;4.32;;;5.20;68.90;;;;;;5083135;28;20019;-67
2023/01/29 00:33:06;;;;;;;8.57;5.75;;;5.20;69.10;;;;;;5097885;28;20051;-64
2023/01/29 00:35:32;;;;;;;8.98;5.28;;;5.20;69.20;;;;;;5106266;28;20105;-67
2023/01/29 00:37:58;;;;;;;10.82;6.05;;;5.30;69.20;;;;;;5107401;28;20036;-67
2023/01/29 00:40:26;;;;;;;8.55;5.00;;;5.30;69.10;;;;;;5094435;28;20093;-66
2023/01/29 00:45:36;;;;;;;7.72;4.70;;;5.30;68.90;;;;;;5076335;28;20066;-64
2023/01/29 00:48:05;;;;;;;9.27;5.78;;;5.30;68.80;;;;;;5077436;28;20443;-64
2023/01/29 00:50:31;;;;;;;9.75;5.75;;;5.30;68.90;;;;;;5085475;28;20482;-64
2023/01/29 00:52:57;;;;;;;8.90;6.00;;;5.30;69.00;;;;;;5083046;28;20036;-64
2023/01/29 00:55:23;;;;;;;8.68;4.95;;;5.30;68.90;;;;;;5082283;28;20509;-67
2023/01/29 00:57:48;;;;;;;6.93;5.30;;;5.30;68.90;;;;;;5077062;28;20032;-64
2023/01/29 01:00:18;;;;;;;7.60;4.88;;;5.30;68.80;;;;;;5093604;28;20024;-64
2023/01/29 01:05:28;;;;;;;13.70;6.53;;;5.30;69.00;;;;;;5102342;28;20532;-63
2023/01/29 01:07:57;;;;;;;9.45;4.82;;;5.30;69.00;;;;;;5107847;28;20032;-63
2023/01/29 01:10:28;;;;;;;9.55;5.75;;;5.30;69.00;;;;;;5098439;28;20470;-64
2023/01/29 01:12:56;;;;;;;8.10;5.57;;;5.30;69.00;;;;;;5105064;28;20024;-64
2023/01/29 01:15:24;;;;;;;10.63;5.60;;;5.20;68.90;;;;;;5102175;28;20027;-64
2023/01/29 01:17:59;;;;;;;8.27;5.43;;;5.20;69.00;;;;;;5104580;28;20053;-65
2023/01/29 01:20:26;;;;;;;9.65;5.65;;;5.20;69.10;;;;;;5097521;28;20028;-65
2023/01/29 01:22:53;;;;;;;10.40;5.30;;;5.20;69.00;;;;;;5102720;28;20408;-66
2023/01/29 01:25:20;;;;;;;8.13;5.82;;;5.20;69.00;;;;;;5081569;28;20028;-67
2023/01/29 01:27:46;;;;;;;10.13;4.93;;;5.20;69.10;;;;;;5087575;28;20126;-67
2023/01/29 01:30:14;;;;;;;8.07;5.50;;;5.20;69.00;;;;;;5105339;28;20037;-67
2023/01/29 01:32:40;;;;;;;18.42;6.28;;;5.20;69.00;;;;;;5092790;28;20040;-67
2023/01/29 01:35:07;;;;;;;11.02;5.15;;;5.20;69.10;;;;;;5098610;28;20096;-63
2023/01/29 01:37:36;;;;;;;10.75;6.22;;;5.10;69.10;;;;;;5101611;28;20114;-66
2023/01/29 01:40:04;;;;;;;11.35;5.50;;;5.10;69.10;;;;;;5059379;28;20033;-66
2023/01/29 01:42:30;;;;;;;9.40;6.35;;;5.10;69.20;;;;;;5100580;28;20027;-64
2023/01/29 01:45:05;;;;;;;11.10;6.53;;;5.10;69.20;;;;;;5096054;28;20024;-64
2023/01/29 01:47:45;;;;;;;7.75;5.57;;;5.10;69.30;;;;;;5098869;28;20498;-66
2023/01/29 01:50:17;;;;;;;12.93;5.80;;;5.10;69.20;;;;;;5090899;28;20028;-67
2023/01/29 01:52:47;;;;;;;;;;;5.10;69.20;;;;;;5097063;28;20040;-64
2023/01/29 01:55:16;;;;;;;8.27;5.97;;;5.00;69.00;;;;;;5097424;28;19908;-66
2023/01/29 01:57:44;;;;;;;8.57;5.90;;;4.90;69.40;;;;;;5105543;28;20463;-67
2023/01/29 02:00:14;;;;;;;6.15;4.38;;;4.90;69.50;;;;;;5091041;28;20111;-63
2023/01/29 02:10:56;;;;;;;11.70;6.20;;;4.90;69.60;;;;;;5106844;28;20061;-66
2023/01/29 02:13:22;;;;;;;7.28;4.93;;;4.80;69.70;;;;;;5107332;28;20036;-66
2023/01/29 02:15:48;;;;;;;9.48;6.45;;;4.80;69.70;;;;;;5094577;28;20039;-64
2023/01/29 02:18:16;;;;;;;11.70;4.85;;;4.70;69.70;;;;;;5091395;28;20497;-64
2023/01/29 02:20:48;;;;;;;9.63;6.47;;;4.70;69.90;;;;;;5095691;28;20032;-64
2023/01/29 02:23:43;;;;;;;8.35;5.68;;;4.70;69.90;;;;;;5089647;28;20470;-67
2023/01/29 02:26:23;;;;;;;8.20;5.28;;;4.70;69.90;;;;;;5087584;28;20497;-67
2023/01/29 02:29:25;;;;;;;9.85;6.07;;;4.70;69.90;;;;;;5094709;28;20031;-64
2023/01/29 02:31:59;;;;;;;9.88;5.80;;;4.70;69.90;;;;;;5089062;28;20055;-67
2023/01/29 02:37:54;;;;;;;8.63;6.20;;;4.70;69.90;;;;;;5102342;28;20042;-63
2023/01/29 02:40:49;;;;;;;9.15;6.28;;;4.70;70.10;;;;;;5099108;28;20027;-66
2023/01/29 02:43:29;;;;;;;8.50;6.35;;;4.70;70.00;;;;;;5092840;28;20502;-67
2023/01/29 02:46:16;;;;;;;10.65;5.97;;;4.80;70.00;;;;;;5079943;28;20034;-63
2023/01/29 02:48:52;;;;;;;13.63;7.00;;;4.80;70.00;;;;;;5071175;28;20025;-63
2023/01/29 02:51:30;;;;;;;16.85;7.47;;;4.70;70.00;;;;;;5100218;28;20450;-64
2023/01/29 02:54:20;;;;;;;7.72;6.07;;;4.70;70.10;;;;;;5073619;28;20479;-66
2023/01/29 02:57:06;;;;;;;11.18;6.70;;;4.70;70.00;;;;;;5083855;28;20033;-64
2023/01/29 03:00:01;;;;;;;10.95;6.38;;;4.70;70.20;;;;;;5077195;28;20039;-64
2023/01/29 03:02:34;;;;;;;9.70;6.53;;;4.70;70.20;;;;;;5077395;28;20036;-63
2023/01/29 03:05:06;;;;;;;11.15;5.55;;;4.70;70.20;;;;;;5096490;28;20016;-64
2023/01/29 03:07:45;;;;;;;11.70;6.90;;;4.70;70.00;;;;;;5064164;28;20020;-64
2023/01/29 03:10:25;;;;;;;12.85;5.43;;;4.70;70.00;;;;;;5086206;28;20020;-63
2023/01/29 03:12:58;;;;;;;9.02;5.97;;;4.70;70.10;;;;;;5099266;28;20102;-63
2023/01/29 03:15:38;;;;;;;9.30;5.93;;;4.70;70.20;;;;;;5102860;28;20028;-63
2023/01/29 03:18:16;;;;;;;10.27;6.25;;;4.70;70.00;;;;;;5088833;28;20047;-64
2023/01/29 03:20:50;;;;;;;7.45;5.22;;;4.70;70.00;;;;;;5081778;28;20028;-68
2023/01/29 03:23:26;;;;;;;10.15;7.55;;;4.70;70.00;;;;;;5087678;28;20039;-67
2023/01/29 03:34:23;;;;;;;13.05;7.28;;;4.50;70.50;;;;;;5107167;28;20058;-67
2023/01/29 03:37:06;;;;;;;13.60;7.70;;;4.50;70.50;;;;;;5105492;28;20032;-68
2023/01/29 03:39:33;;;;;;;8.95;6.13;;;4.50;70.40;;;;;;5094070;28;20084;-67
2023/01/29 03:42:35;;;;;;;10.80;5.93;;;4.50;70.50;;;;;;5100925;28;20170;-64
2023/01/29 03:45:12;;;;;;;11.00;6.38;;;4.50;70.40;;;;;;5078453;28;20031;-63
2023/01/29 03:47:47;;;;;;;10.93;5.93;;;4.50;70.50;;;;;;5106479;28;20099;-64
2023/01/29 03:50:12;;;;;;;11.98;6.55;;;4.50;70.50;;;;;;5086379;28;20017;-65
2023/01/29 03:52:47;;;;;;;10.70;6.88;;;4.40;70.50;;;;;;5074757;28;20032;-63
2023/01/29 03:55:31;;;;;;;10.63;6.80;;;4.50;70.60;;;;;;5102215;28;20019;-63
2023/01/29 03:58:19;;;;;;;9.40;5.68;;;4.50;70.60;;;;;;5092808;28;20070;-63
2023/01/29 04:00:59;;;;;;;11.15;8.07;;;4.40;70.60;;;;;;5091696;28;20031;-66
2023/01/29 04:03:38;;;;;;;9.45;7.15;;;4.50;70.70;;;;;;5079088;28;20024;-66
2023/01/29 04:06:21;;;;;;;11.10;6.68;;;4.50;70.60;;;;;;5087234;28;20479;-67
2023/01/29 04:09:20;;;;;;;8.98;6.30;;;4.50;70.50;;;;;;5091568;28;20082;-66
2023/01/29 04:11:56;;;;;;;13.00;7.78;;;4.60;70.40;;;;;;5072413;28;20028;-64
2023/01/29 04:14:22;;;;;;;11.50;6.93;;;4.50;70.50;;;;;;5090235;28;20035;-67
2023/01/29 04:16:52;;;;;;;9.68;6.38;;;4.60;70.50;;;;;;5099978;28;20494;-66
2023/01/29 04:19:18;;;;;;;13.63;6.72;;;4.60;70.40;;;;;;5080301;28;20026;-67
2023/01/29 04:21:46;;;;;;;9.60;6.40;;;4.60;70.50;;;;;;5089466;28;20035;-66
2023/01/29 04:24:12;;;;;;;8.27;6.13;;;4.60;70.60;;;;;;5076872;28;20029;-66
2023/01/29 04:26:44;;;;;;;10.95;6.53;;;4.70;70.60;;;;;;5097018;28;20103;-67
2023/01/29 04:29:19;;;;;;;8.60;5.95;;;4.70;70.50;;;;;;5102851;28;20028;-66
2023/01/29 04:31:56;;;;;;;10.05;6.57;;;4.60;70.60;;;;;;5103817;28;20024;-67
2023/01/29 04:34:33;;;;;;;10.65;6.35;;;4.50;70.60;;;;;;5091146;28;20043;-64
2023/01/29 04:37:20;;;;;;;10.57;6.65;;;4.50;70.90;;;;;;5104071;28;20077;-63
2023/01/29 04:39:55;;;;;;;8.90;5.38;;;4.40;71.00;;;;;;5071595;28;20111;-66
2023/01/29 04:42:33;;;;;;;11.02;7.25;;;4.40;71.10;;;;;;5096190;28;20028;-66
2023/01/29 04:45:05;;;;;;;9.73;7.22;;;4.40;71.10;;;;;;5095561;28;20027;-66
2023/01/29 04:47:36;;;;;;;;;;;4.50;71.10;;;;;;5106410;28;20023;-66
2023/01/29 04:50:23;;;;;;;10.40;6.65;;;4.40;70.90;;;;;;5099801;28;19915;-66
2023/01/29 04:53:09;;;;;;;9.25;6.53;;;4.40;71.10;;;;;;5088737;28;20042;-67
2023/01/29 04:55:47;;;;;;;9.75;7.28;;;4.40;71.10;;;;;;5107763;28;20061;-66
2023/01/29 04:58:20;;;;;;;9.57;6.50;;;4.30;71.20;;;;;;5096831;28;20024;-67
2023/01/29 05:00:49;;;;;;;8.90;6.25;;;4.30;71.20;;;;;;5103858;28;20100;-66
2023/01/29 05:03:15;;;;;;;10.57;6.75;;;4.30;71.20;;;;;;5100940;28;20008;-67
2023/01/29 05:05:46;;;;;;;9.57;6.10;;;4.40;71.30;;;;;;5105147;28;20035;-63
2023/01/29 05:08:15;;;;;;;12.77;6.25;;;4.30;71.40;;;;;;5096424;28;20020;-63
2023/01/29 05:10:41;;;;;;;8.13;6.45;;;4.40;71.40;;;;;;5109949;28;20023;-63
2023/01/29 05:13:12;;;;;;;12.18;7.18;;;4.40;71.30;;;;;;5090780;28;20576;-63
2023/01/29 05:15:41;;;;;;;12.27;7.32;;;4.40;71.10;;;;;;5078082;28;20039;-63
2023/01/29 05:18:09;;;;;;;12.23;8.45;;;4.50;71.10;;;;;;5097633;28;20474;-63
2023/01/29 05:20:38;;;;;;;12.38;7.60;;;4.40;71.10;;;;;;5098355;28;20052;-66
2023/01/29 05:23:08;;;;;;;12.68;7.30;;;4.40;71.20;;;;;;5094783;28;20482;-66
2023/01/29 05:25:34;;;;;;;12.40;7.43;;;4.40;71.20;;;;;;5085995;28;20097;-66
2023/01/29 05:28:18;;;;;;;15.13;6.82;;;4.40;71.20;;;;;;5071093;28;20020;-66
2023/01/29 05:30:46;;;;;;;12.27;6.38;;;4.40;71.30;;;;;;5075647;28;20059;-66
2023/01/29 05:33:33;;;;;;;11.55;7.40;;;4.40;71.20;;;;;;5083350;28;20569;-66
2023/01/29 05:35:59;;;;;;;11.13;6.88;;;4.40;71.20;;;;;;5090652;28;20112;-66
2023/01/29 05:38:25;;;;;;;15.52;7.47;;;4.30;71.30;;;;;;5078566;28;20039;-65
2023/01/29 05:40:51;;;;;;;18.40;9.13;;;4.30;71.30;;;;;;5090373;28;20032;-66
2023/01/29 05:43:17;;;;;;;12.18;8.05;;;4.30;71.40;;;;;;5077517;28;20032;-67
2023/01/29 05:45:58;;;;;;;10.70;7.15;;;4.30;71.70;;;;;;5085098;28;20024;-66
2023/01/29 05:48:24;;;;;;;16.50;7.10;;;4.30;71.60;;;;;;5074976;28;20475;-67
2023/01/29 05:50:50;;;;;;;11.68;6.85;;;4.30;71.60;;;;;;5086197;28;20029;-67
2023/01/29 05:53:16;;;;;;;7.97;6.22;;;4.30;71.60;;;;;;5079313;28;20035;-67
2023/01/29 05:55:46;;;;;;;14.05;7.85;;;4.30;71.60;;;;;;5089167;28;20047;-67
2023/01/29 05:58:12;;;;;;;10.32;6.93;;;4.30;71.60;;;;;;5088206;28;20139;-67
2023/01/29 06:00:39;;;;;;;8.50;6.82;;;4.40;71.50;;;;;;5087442;28;20492;-64
2023/01/29 06:03:04;;;;;;;11.88;7.60;;;4.50;71.40;;;;;;5086453;28;20461;-65
2023/01/29 06:05:30;;;;;;;12.02;7.00;;;4.50;71.40;;;;;;5088667;28;20032;-67
2023/01/29 06:07:56;;;;;;;11.35;6.82;;;4.50;71.30;;;;;;5106273;28;20031;-66
2023/01/29 06:10:21;;;;;;;11.25;6.63;;;4.50;71.30;;;;;;5107663;28;20063;-66
2023/01/29 06:12:47;;;;;;;11.85;6.28;;;4.50;71.20;;;;;;5101730;28;20119;-66
2023/01/29 06:15:16;;;;;;;10.63;7.20;;;4.60;71.10;;;;;;5089139;28;20478;-63
2023/01/29 06:17:42;;;;;;;11.63;7.03;;;4.60;71.10;;;;;;5080903;28;20042;-66
2023/01/29 06:20:08;;;;;;;17.48;8.68;;;4.60;71.10;;;;;;5082282;28;20115;-67
2023/01/29 06:22:34;;;;;;;13.65;8.55;;;4.50;71.10;;;;;;5099918;28;20486;-67
2023/01/29 06:25:00;;;;;;;11.52;7.05;;;4.40;71.40;;;;;;5091670;28;20081;-67
2023/01/29 06:27:26;;;;;;;13.10;8.82;;;4.40;71.50;;;;;;5084377;28;20028;-66
2023/01/29 06:29:51;;;;;;;13.38;9.55;;;4.40;71.60;;;;;;5067299;28;20513;-66
2023/01/29 06:32:17;;;;;;;16.05;8.80;;;4.40;72.40;;;;;;5085360;28;20062;-66
2023/01/29 06:34:43;;;;;;;15.95;9.52;;;4.30;71.90;;;;;;5064073;28;20024;-66
2023/01/29 06:37:08;;;;;;;12.55;8.95;;;4.30;71.90;;;;;;5088625;28;20046;-65
2023/01/29 06:39:34;;;;;;;13.02;8.32;;;4.30;72.00;;;;;;5090556;28;20426;-64
2023/01/29 06:42:00;;;;;;;13.18;9.05;;;4.30;72.00;;;;;;5090541;28;20051;-64
2023/01/29 06:44:25;;;;;;;12.68;6.95;;;4.30;71.90;;;;;;5088867;28;20651;-64
2023/01/29 06:46:51;;;;;;;15.75;7.60;;;4.30;71.90;;;;;;5092761;28;20061;-64
2023/01/29 06:49:17;;;;;;;14.40;7.78;;;4.30;71.90;;;;;;5072747;28;20035;-63
2023/01/29 06:51:42;;;;;;;13.68;8.02;;;4.30;71.90;;;;;;5092149;28;20022;-64
2023/01/29 06:54:09;;;;;;;13.40;8.13;;;4.30;72.00;;;;;;5089576;28;20086;-64
2023/01/29 06:56:35;;;;;;;15.55;7.90;;;4.30;71.90;;;;;;5092473;28;20040;-64
2023/01/29 06:59:01;;;;;;;15.70;9.00;;;4.30;72.00;;;;;;5073137;28;20513;-64
2023/01/29 07:01:27;;;;;;;14.07;8.93;;;4.30;71.90;;;;;;5091695;28;20027;-63
2023/01/29 07:03:52;;;;;;;14.43;6.90;;;4.30;71.90;;;;;;5086429;28;20428;-66
2023/01/29 07:06:18;;;;;;;12.70;8.07;;;4.30;71.90;;;;;;5090960;28;20119;-64
2023/01/29 07:08:44;;;;;;;14.05;8.73;;;4.30;72.00;;;;;;5090324;28;20116;-64
2023/01/29 07:11:11;;;;;;;12.52;8.95;;;4.40;72.00;;;;;;5093142;28;20069;-64
2023/01/29 07:13:36;;;;;;;13.32;8.55;;;4.40;72.00;;;;;;5092396;28;20102;-64
2023/01/29 07:16:03;;;;;;;11.05;8.20;;;4.40;72.50;;;;;;5071586;28;20028;-67
2023/01/29 07:18:30;;;;;;;15.80;8.68;;;4.40;72.00;;;;;;5087114;28;20048;-64
2023/01/29 07:20:56;;;;;;;15.80;8.02;;;4.40;72.00;;;;;;5091706;28;20097;-64
2023/01/29 07:23:22;;;;;;;12.65;8.15;;;4.40;72.00;;;;;;5087303;28;20075;-64
2023/01/29 07:25:51;;;;;;;12.27;7.10;;;4.40;72.00;;;;;;5087740;28;20020;-67
2023/01/29 07:28:18;;;;;;;12.90;7.40;;;4.40;72.10;;;;;;5089702;28;20032;-64
2023/01/29 07:30:43;;;;;;;15.23;8.88;;;4.40;72.00;;;;;;5092016;28;20390;-65
2023/01/29 07:33:10;;;;;;;10.90;7.07;;;4.40;72.00;;;;;;5090861;28;20081;-66
2023/01/29 07:35:41;;;;;;;12.95;7.57;;;4.40;72.00;;;;;;5088558;28;20068;-63
2023/01/29 07:38:10;;;;;;;12.65;7.95;;;4.40;72.00;;;;;;5098131;28;20024;-60
2023/01/29 07:40:36;;;;;;;11.10;7.78;;;4.40;72.00;;;;;;5087600;28;20478;-61
2023/01/29 07:43:04;;;;;;;10.98;6.60;;;4.40;72.00;;;;;;5087241;28;20027;-62
2023/01/29 07:45:32;;;;;;;10.50;6.80;;;4.50;71.90;;;;;;5090847;28;20163;-62
2023/01/29 07:47:58;;;;;;;11.02;7.32;;;4.50;71.80;;;;;;5084777;28;20479;-62
2023/01/29 07:50:25;;;;;;;9.68;6.90;;;4.50;71.70;;;;;;5087662;28;20090;-61
2023/01/29 07:52:53;;;;;;;11.32;7.13;;;4.60;71.80;;;;;;5085738;28;20101;-60
2023/01/29 07:55:19;;;;;;;13.70;8.02;;;4.50;71.70;;;;;;5085153;28;20051;-60
2023/01/29 07:57:44;;;;;;;12.38;7.80;;;4.50;71.80;;;;;;5083021;28;20066;-60
2023/01/29 08:00:11;;;;;;;9.63;7.03;;;4.50;71.80;;;;;;5086984;28;20024;-61
2023/01/29 08:02:37;;;;;;;12.45;7.13;;;4.60;71.80;;;;;;5084887;28;20028;-60
2023/01/29 08:05:03;;;;;;;13.20;7.80;;;4.60;71.70;;;;;;5087157;28;20506;-61
2023/01/29 08:07:28;;;;;;;13.15;7.53;;;4.50;71.80;;;;;;5072105;28;20024;-63
2023/01/29 08:09:54;;;;;;;11.70;7.88;;;4.50;71.80;;;;;;5089590;28;20020;-63
2023/01/29 08:12:20;;;;;;;12.30;7.88;;;4.50;71.80;;;;;;5087714;28;20070;-62
2023/01/29 08:14:45;;;;;;;14.02;8.75;;;4.60;71.80;;;;;;5086336;28;20028;-64
2023/01/29 08:17:12;;;;;;;10.07;7.90;;;4.60;71.80;;;;;;5065526;28;20493;-63
2023/01/29 08:19:38;;;;;;;12.52;7.18;;;4.60;71.70;;;;;;5087318;28;20503;-63
2023/01/29 08:22:05;;;;;;;13.27;7.72;;;4.60;71.70;;;;;;5087535;28;20024;-62
2023/01/29 08:24:31;;;;;;;11.20;8.07;;;4.60;71.60;;;;;;5091039;28;20036;-71
2023/01/29 08:26:56;;;;;;;13.77;8.32;;;4.60;71.60;;;;;;5089498;28;20033;-62
2023/01/29 08:29:22;;;;;;;11.98;7.00;;;4.60;71.60;;;;;;5087353;28;20054;-62
2023/01/29 08:31:48;;;;;;;12.10;8.45;;;4.70;71.60;;;;;;5083298;28;20039;-72
2023/01/29 08:34:14;;;;;;;9.25;6.68;;;4.70;71.50;;;;;;5086412;28;20491;-72
2023/01/29 08:36:39;;;;;;;9.15;6.95;;;4.70;71.40;;;;;;5094013;28;20032;-64
2023/01/29 08:39:05;;;;;;;8.82;7.68;;;4.70;71.30;;;;;;5094967;28;20180;-63
2023/01/29 08:41:31;;;;;;;15.27;8.13;;;4.70;71.30;;;;;;5089211;28;20523;-69
2023/01/29 08:43:59;;;;;;;11.10;6.70;;;4.70;71.50;;;;;;5075706;28;20036;-63
2023/01/29 08:46:25;;;;;;;18.10;9.15;;;4.70;71.50;;;;;;5075973;28;20032;-59
2023/01/29 08:48:50;;;;;;;13.70;8.15;;;4.70;71.40;;;;;;5084333;28;20028;-64
2023/01/29 08:51:16;;;;;;;9.75;6.68;;;4.80;71.40;;;;;;5085215;28;20034;-63
2023/01/29 08:53:42;;;;;;;11.60;7.40;;;4.80;71.30;;;;;;5095358;28;20543;-67
2023/01/29 08:56:07;;;;;;;10.25;6.75;;;4.80;71.30;;;;;;5081481;28;20032;-67
2023/01/29 08:58:33;;;;;;;13.07;6.75;;;4.80;71.20;;;;;;5072407;28;20065;-62
2023/01/29 09:01:10;;;;;;;14.20;9.05;;;4.90;71.00;;;;;;5082807;28;20177;-68
2023/01/29 09:03:36;;;;;;;10.65;6.72;;;5.00;70.90;;;;;;5084996;28;20079;-63
2023/01/29 09:06:02;;;;;;;10.20;6.15;;;5.00;71.40;;;;;;5087079;28;20059;-67
2023/01/29 09:08:28;;;;;;;12.00;7.30;;;5.10;70.80;;;;;;5099109;28;20034;-64
2023/01/29 09:10:53;;;;;;;11.38;6.93;;;5.10;70.60;;;;;;5087404;28;20027;-69
2023/01/29 09:13:19;;;;;;;12.00;7.03;;;5.20;70.60;;;;;;5090619;28;20024;-67
2023/01/29 09:15:45;;;;;;;10.32;7.28;;;5.20;70.40;;;;;;5066576;28;20120;-63
2023/01/29 09:18:10;;;;;;;12.35;7.05;;;5.20;70.20;;;;;;5095896;28;20032;-63
2023/01/29 09:20:37;;;;;;;12.68;7.07;;;5.20;70.20;;;;;;5083602;28;20028;-62
2023/01/29 09:23:09;;;;;;;10.30;6.80;;;5.20;70.10;;;;;;5084855;28;20024;-61
2023/01/29 09:25:36;;;;;;;14.82;7.50;;;5.10;70.10;;;;;;5078987;28;20031;-62
2023/01/29 09:28:02;;;;;;;8.60;6.05;;;5.10;70.10;;;;;;5087535;28;20023;-65
2023/01/29 09:30:28;;;;;;;8.65;6.50;;;5.10;70.20;;;;;;5087445;28;20113;-65
2023/01/29 09:32:53;;;;;;;12.60;6.97;;;5.10;70.10;;;;;;5098973;28;20059;-65
2023/01/29 09:35:22;;;;;;;10.60;7.68;;;5.10;70.10;;;;;;5094128;28;20031;-65
2023/01/29 09:37:49;;;;;;;17.48;8.38;;;5.10;70.10;;;;;;5086801;28;20027;-66
2023/01/29 09:40:24;;;;;;;11.02;6.30;;;5.10;70.10;;;;;;5079069;28;20588;-63
2023/01/29 09:42:57;;;;;;;13.20;7.63;;;5.10;70.00;;;;;;5076233;28;20031;-63
2023/01/29 09:45:25;;;;;;;12.18;6.93;;;5.10;70.10;;;;;;5088456;28;20051;-64
2023/01/29 09:47:54;;;;;;;12.95;6.38;;;5.20;70.00;;;;;;5081726;28;20036;-62
2023/01/29 09:50:40;;;;;;;13.82;6.95;;;5.30;69.90;;;;;;5076207;28;20028;-63
2023/01/29 09:53:44;;;;;;;11.13;7.13;;;5.30;69.80;;;;;;5081544;28;20032;-62
2023/01/29 09:56:19;;;;;;;9.30;6.53;;;5.30;69.70;;;;;;5079979;28;20463;-63
2023/01/29 09:58:44;;;;;;;12.10;7.05;;;5.20;69.80;;;;;;5093313;28;20111;-62
2023/01/29 10:01:19;;;;;;;10.90;6.65;;;5.20;69.80;;;;;;5093859;28;20530;-62
2023/01/29 10:03:57;;;;;;;12.85;6.95;;;5.30;69.80;;;;;;5074374;28;20348;-62
2023/01/29 10:06:32;;;;;;;11.27;6.90;;;5.30;69.80;;;;;;5091634;28;20445;-62
2023/01/29 10:09:32;;;;;;;8.05;6.22;;;5.30;69.80;;;;;;5063539;28;20023;-63
2023/01/29 10:12:35;;;;;;;9.82;6.53;;;5.40;69.60;;;;;;5077732;28;20020;-63
2023/01/29 10:15:18;;;;;;;;;;;5.40;69.70;;;;;;5083210;28;20398;-65
2023/01/29 10:17:43;;;;;;;;;;;5.40;69.70;;;;;;5072943;28;20416;-65
2023/01/29 10:20:33;;;;;;;7.95;6.03;;;5.30;69.90;;;;;;5071063;28;19908;-65
2023/01/29 10:23:04;;;;;;;10.40;6.07;;;5.40;69.70;;;;;;5078183;28;20056;-65
2023/01/29 10:25:35;;;;;;;11.00;6.70;;;5.40;69.60;;;;;;5089870;28;20119;-65
2023/01/29 10:28:01;;;;;;;13.05;6.47;;;5.40;69.60;;;;;;5087408;28;20024;-65
2023/01/29 10:30:38;;;;;;;10.35;5.72;;;5.40;69.50;;;;;;5086035;28;20031;-63
2023/01/29 10:33:05;;;;;;;8.57;6.53;;;5.40;69.50;;;;;;5088782;28;20036;-64
2023/01/29 10:35:42;;;;;;;11.25;5.63;;;5.40;69.40;;;;;;5084783;28;20085;-63
2023/01/29 10:38:27;;;;;;;10.65;6.80;;;5.40;69.40;;;;;;5090162;28;20065;-65
2023/01/29 10:41:06;;;;;;;10.07;6.07;;;5.40;69.10;;;;;;5088276;28;20029;-65
2023/01/29 10:43:45;;;;;;;9.27;5.70;;;5.40;69.10;;;;;;5087603;28;20032;-65
2023/01/29 10:46:14;;;;;;;10.85;6.70;;;5.40;69.10;;;;;;5074478;28;20013;-63
2023/01/29 10:48:49;;;;;;;8.30;5.07;;;5.40;69.10;;;;;;5083540;28;20386;-64
2023/01/29 10:51:39;;;;;;;9.85;6.05;;;5.40;69.10;;;;;;5083213;28;20024;-62
2023/01/29 10:54:26;;;;;;;10.93;6.13;;;5.50;69.10;;;;;;5088925;28;20024;-62
2023/01/29 10:57:29;;;;;;;12.60;6.30;;;5.50;68.40;;;;;;5087638;28;20036;-62
2023/01/29 11:00:09;;;;;;;12.70;6.70;;;5.40;68.60;;;;;;5085069;28;20503;-64
2023/01/29 11:02:34;;;;;;;13.18;6.80;;;5.40;68.90;;;;;;5081761;28;20368;-63
2023/01/29 11:05:00;;;;;;;14.32;7.18;;;5.40;68.80;;;;;;5089300;28;20027;-64
2023/01/29 11:07:26;;;;;;;9.52;7.15;;;5.50;68.70;;;;;;5064886;28;20029;-62
2023/01/29 11:10:11;;;;;;;9.75;6.93;;;5.50;68.60;;;;;;5082635;28;20509;-65
2023/01/29 11:12:38;;;;;;;9.48;6.05;;;5.50;68.40;;;;;;5096768;28;20020;-64
2023/01/29 11:15:12;;;;;;;11.27;5.65;;;5.40;68.70;;;;;;5069964;28;20484;-64
2023/01/29 11:17:38;;;;;;;9.32;6.35;;;5.50;68.60;;;;;;5095295;28;20056;-63
2023/01/29 11:20:24;;;;;;;7.45;5.90;;;5.50;68.50;;;;;;5104276;28;20482;-62
2023/01/29 11:22:54;;;;;;;12.13;6.97;;;5.50;68.50;;;;;;5094213;28;20028;-64
2023/01/29 11:25:21;;;;;;;13.85;6.65;;;5.50;68.50;;;;;;5096958;28;20447;-64
2023/01/29 11:27:51;;;;;;;11.65;6.55;;;5.50;68.50;;;;;;5090336;28;20498;-65
2023/01/29 11:30:31;;;;;;;9.20;6.47;;;5.50;68.30;;;;;;5096370;28;20019;-63
2023/01/29 11:33:07;;;;;;;9.60;5.43;;;5.60;68.40;;;;;;5093222;28;20054;-63
2023/01/29 11:35:34;;;;;;;10.35;6.93;;;5.70;68.40;;;;;;5085666;28;20029;-63
2023/01/29 11:38:29;;;;;;;7.40;5.72;;;5.70;68.20;;;;;;5087044;28;20455;-62
2023/01/29 11:41:06;;;;;;;9.00;6.28;;;5.70;67.80;;;;;;5082655;28;20055;-63
2023/01/29 11:43:32;;;;;;;9.00;5.93;;;5.60;67.90;;;;;;5086034;28;20399;-63
2023/01/29 11:46:03;;;;;;;10.95;6.65;;;5.60;68.10;;;;;;5094728;28;20022;-63
2023/01/29 11:48:44;;;;;;;9.48;6.28;;;5.70;68.00;;;;;;5082809;28;20025;-63
2023/01/29 11:51:20;;;;;;;8.18;5.75;;;5.70;67.80;;;;;;5086808;28;20438;-63
2023/01/29 11:53:51;;;;;;;13.85;6.57;;;5.70;67.90;;;;;;5064319;28;20015;-63
2023/01/29 11:56:28;;;;;;;12.20;7.32;;;5.80;67.90;;;;;;5077517;28;20580;-63
2023/01/29 11:58:56;;;;;;;11.18;6.57;;;5.80;67.80;;;;;;5073277;28;21117;-65
2023/01/29 12:01:35;;;;;;;11.75;6.32;;;5.80;67.90;;;;;;5073920;28;20024;-65
2023/01/29 12:04:02;;;;;;;10.40;6.18;;;5.80;67.80;;;;;;5097642;27;20395;-65
2023/01/29 12:06:36;;;;;;;18.75;6.93;;;5.80;68.00;;;;;;5075404;28;20456;-65
2023/01/29 12:09:15;;;;;;;11.55;6.97;;;5.80;68.60;;;;;;5052846;28;20116;-65
2023/01/29 12:11:41;;;;;;;13.45;7.25;;;5.80;68.10;;;;;;5087824;28;20020;-65
2023/01/29 12:14:32;;;;;;;9.05;6.57;;;5.80;68.20;;;;;;5078068;28;20043;-65
2023/01/29 12:17:07;;;;;;;8.38;6.22;;;5.80;68.10;;;;;;5075083;28;20020;-65
2023/01/29 12:19:42;;;;;;;11.63;6.68;;;5.80;68.30;;;;;;5064694;28;20070;-64
2023/01/29 12:22:21;;;;;;;10.05;7.05;;;5.80;68.30;;;;;;5054878;28;20052;-64
2023/01/29 12:25:06;;;;;;;10.18;7.03;;;5.90;68.40;;;;;;5076440;28;20033;-64
2023/01/29 12:27:38;;;;;;;11.25;6.72;;;5.80;68.40;;;;;;5061828;28;20475;-65
2023/01/29 12:30:30;;;;;;;10.00;7.07;;;5.80;68.60;;;;;;5081364;28;20023;-65
2023/01/29 12:33:05;;;;;;;12.35;6.35;;;5.80;68.50;;;;;;5086426;28;20044;-65
2023/01/29 12:35:48;;;;;;;12.60;7.55;;;5.80;68.60;;;;;;5070329;28;20024;-65
2023/01/29 12:38:20;;;;;;;14.07;7.10;;;5.80;68.60;;;;;;5080682;28;20514;-65
2023/01/29 12:40:57;;;;;;;10.15;6.93;;;5.80;68.60;;;;;;5090370;28;20035;-65
2023/01/29 12:43:36;;;;;;;11.65;7.05;;;5.80;68.70;;;;;;5071887;28;20027;-65
2023/01/29 12:46:05;;;;;;;15.43;8.02;;;5.80;68.80;;;;;;5085029;28;20027;-64
2023/01/29 12:48:36;;;;;;;18.35;7.63;;;5.80;69.00;;;;;;5099364;28;20035;-65
2023/01/29 12:51:12;;;;;;;13.65;7.75;;;5.80;69.10;;;;;;5095282;28;20016;-65
2023/01/29 12:54:02;;;;;;;12.65;7.70;;;5.80;69.80;;;;;;5075471;28;20063;-65
2023/01/29 12:56:51;;;;;;;11.85;6.78;;;5.80;69.30;;;;;;5080573;28;20464;-64
2023/01/29 12:59:41;;;;;;;12.25;7.38;;;5.80;69.50;;;;;;5068579;28;20317;-65
2023/01/29 13:02:22;;;;;;;11.38;8.00;;;5.90;69.60;;;;;;5070859;28;20024;-63
2023/01/29 13:04:59;;;;;;;11.35;7.63;;;5.80;69.60;;;;;;5057836;28;20024;-65
2023/01/29 13:07:30;;;;;;;11.10;7.28;;;5.80;69.70;;;;;;5063627;28;20507;-63
2023/01/29 13:10:07;;;;;;;11.93;7.38;;;5.80;69.80;;;;;;5065888;28;20096;-65
2023/01/29 13:12:35;;;;;;;11.13;6.32;;;5.80;69.80;;;;;;5058062;28;20385;-63
2023/01/29 13:15:21;;;;;;;9.68;7.78;;;5.80;69.90;;;;;;5064590;28;20025;-64
2023/01/29 13:17:54;;;;;;;13.75;7.22;;;5.90;69.90;;;;;;5059922;28;20083;-63
2023/01/29 13:20:34;;;;;;;10.90;6.82;;;5.90;69.80;;;;;;5065171;28;20511;-66
2023/01/29 13:23:28;;;;;;;11.13;7.50;;;6.00;69.90;;;;;;5062897;28;20498;-64
2023/01/29 13:25:54;;;;;;;11.80;7.75;;;6.00;69.80;;;;;;5048752;28;20032;-64
2023/01/29 13:28:23;;;;;;;12.10;7.65;;;5.90;70.20;;;;;;5061317;28;20051;-64
2023/01/29 13:31:27;;;;;;;10.77;6.97;;;5.90;70.30;;;;;;5064848;28;20052;-64
2023/01/29 13:34:03;;;;;;;11.02;7.50;;;5.90;70.40;;;;;;5063012;28;20635;-65
2023/01/29 13:36:30;;;;;;;11.60;7.60;;;5.80;70.50;;;;;;5065273;28;20023;-63
2023/01/29 13:39:06;;;;;;;12.32;8.73;;;5.80;70.60;;;;;;5054155;28;20024;-65
2023/01/29 13:41:35;;;;;;;16.30;9.15;;;5.80;70.70;;;;;;5063705;28;20017;-63